Time;durP1;ratioP1;P1;durP2;ratioP2;P2;SDS_P1;SDS_P2;PMS_P1;PMS_P2;Temp;Humidity;BMP_temperature;BMP_pressure;BME280_temperature;BME280_humidity;BME280_pressure;Samples;Min_cycle;Max_cycle;Signal;HPM_P1;HPM_P2
2022/12/31 00:02:05;;;;;;;0.10;0.10;;;;;;;;;;5059990;28;20123;-93
2022/12/31 00:04:35;;;;;;;0.20;0.20;;;;;;;;;;5062681;28;20081;-96
2022/12/31 00:07:06;;;;;;;0.08;0.08;;;;;;;;;;5064841;28;20124;-95
2022/12/31 00:09:35;;;;;;;0.00;0.00;;;;;;;;;;5060771;28;20102;-95
2022/12/31 00:12:06;;;;;;;0.03;0.03;;;;;;;;;;5060247;28;20107;-96
2022/12/31 00:14:35;;;;;;;0.10;0.10;;;;;;;;;;5061700;28;20052;-96
2022/12/31 00:17:05;;;;;;;0.00;0.00;;;;;;;;;;5055082;28;20060;-94
2022/12/31 00:19:34;;;;;;;0.05;0.03;;;;;;;;;;5055307;28;20041;-95
2022/12/31 00:22:03;;;;;;;0.10;0.10;;;;;;;;;;5060220;28;20095;-96
2022/12/31 00:24:34;;;;;;;0.08;0.08;;;;;;;;;;5060628;28;20072;-96
2022/12/31 00:27:04;;;;;;;0.75;0.30;;;;;;;;;;5061739;28;20139;-96
2022/12/31 00:29:33;;;;;;;0.10;0.10;;;;;;;;;;5058998;28;20048;-95
2022/12/31 00:32:02;;;;;;;0.00;0.00;;;;;;;;;;5063596;28;20108;-93
2022/12/31 00:34:34;;;;;;;0.03;0.03;;;;;;;;;;5062302;28;20047;-96
2022/12/31 00:37:03;;;;;;;0.05;0.05;;;;;;;;;;5063693;28;20060;-95
2022/12/31 00:39:34;;;;;;;0.13;0.10;;;;;;;;;;5061595;28;20045;-95
2022/12/31 00:42:03;;;;;;;0.00;0.00;;;;;;;;;;5054731;28;20052;-90
2022/12/31 00:44:32;;;;;;;0.15;0.10;;;;;;;;;;5058658;28;20049;-96
2022/12/31 00:47:00;;;;;;;0.10;0.10;;;;;;;;;;5061645;28;20044;-92
2022/12/31 00:49:29;;;;;;;0.00;0.00;;;;;;;;;;5055072;28;20057;-92
2022/12/31 00:51:59;;;;;;;0.00;0.00;;;;;;;;;;5049906;28;20057;-92
2022/12/31 00:54:29;;;;;;;0.00;0.00;;;;;;;;;;5061110;28;20493;-91
2022/12/31 00:56:59;;;;;;;0.00;0.00;;;;;;;;;;5056945;28;20128;-93
2022/12/31 00:59:27;;;;;;;0.10;0.10;;;;;;;;;;5056220;28;20119;-94
2022/12/31 01:01:56;;;;;;;0.00;0.00;;;;;;;;;;5054289;28;20045;-94
2022/12/31 01:04:25;;;;;;;0.00;0.00;;;;;;;;;;5056354;28;20053;-95
2022/12/31 01:06:53;;;;;;;0.10;0.10;;;;;;;;;;5052409;28;20079;-89
2022/12/31 01:09:22;;;;;;;0.10;0.10;;;;;;;;;;5054995;28;20227;-94
2022/12/31 01:11:51;;;;;;;0.00;0.00;;;;;;;;;;5045624;28;20057;-93
2022/12/31 01:14:21;;;;;;;0.00;0.00;;;;;;;;;;5054396;28;20071;-93
2022/12/31 01:16:50;;;;;;;0.00;0.00;;;;;;;;;;5053741;28;20080;-92
2022/12/31 01:19:22;;;;;;;0.65;0.10;;;;;;;;;;5053946;28;20057;-93
2022/12/31 01:21:51;;;;;;;0.28;0.10;;;;;;;;;;5051769;28;20080;-93
2022/12/31 01:24:21;;;;;;;0.55;0.10;;;;;;;;;;5059953;28;20106;-92
2022/12/31 01:26:50;;;;;;;0.00;0.00;;;;;;;;;;5057191;28;20047;-91
2022/12/31 01:29:21;;;;;;;0.00;0.00;;;;;;;;;;5060677;28;20087;-93
2022/12/31 01:31:52;;;;;;;0.00;0.00;;;;;;;;;;5057482;28;20553;-88
2022/12/31 01:34:21;;;;;;;0.10;0.10;;;;;;;;;;5057510;28;20108;-93
2022/12/31 01:36:49;;;;;;;0.00;0.00;;;;;;;;;;5057899;28;20049;-93
2022/12/31 01:39:18;;;;;;;0.00;0.00;;;;;;;;;;5058757;28;20075;-92
2022/12/31 01:41:47;;;;;;;0.00;0.00;;;;;;;;;;5058745;28;20088;-94
2022/12/31 01:44:34;;;;;;;0.00;0.00;;;;;;;;;;5057667;28;20120;-95
2022/12/31 01:47:05;;;;;;;0.08;0.05;;;;;;;;;;5053973;28;20069;-89
2022/12/31 01:49:36;;;;;;;0.00;0.00;;;;;;;;;;5045746;28;20082;-93
2022/12/31 01:52:07;;;;;;;0.10;0.10;;;;;;;;;;5053998;28;20135;-92
2022/12/31 01:54:39;;;;;;;0.10;0.10;;;;;;;;;;5055208;28;20048;-95
2022/12/31 01:57:09;;;;;;;1.38;0.10;;;;;;;;;;5056841;28;20438;-95
2022/12/31 01:59:38;;;;;;;0.00;0.00;;;;;;;;;;5059069;28;20098;-94
2022/12/31 02:02:08;;;;;;;0.13;0.10;;;;;;;;;;5057614;28;20048;-90
2022/12/31 02:04:38;;;;;;;0.45;0.10;;;;;;;;;;5056451;28;20099;-95
2022/12/31 02:07:08;;;;;;;0.10;0.10;;;;;;;;;;5059791;28;20108;-94
2022/12/31 02:09:38;;;;;;;0.28;0.10;;;;;;;;;;5058700;28;20449;-90
2022/12/31 02:12:07;;;;;;;0.00;0.00;;;;;;;;;;5057151;28;20095;-96
2022/12/31 02:14:40;;;;;;;0.08;0.08;;;;;;;;;;5056874;28;20052;-96
2022/12/31 02:17:15;;;;;;;0.00;0.00;;;;;;;;;;5055208;28;20087;-96
2022/12/31 02:19:56;;;;;;;0.17;0.17;;;;;;;;;;5054153;28;20097;-96
2022/12/31 02:22:31;;;;;;;0.00;0.00;;;;;;;;;;5053746;28;20052;-96
2022/12/31 02:25:09;;;;;;;0.03;0.03;;;;;;;;;;5054941;28;20036;-96
2022/12/31 02:27:42;;;;;;;0.73;0.20;;;;;;;;;;5049507;28;20056;-93
2022/12/31 02:30:16;;;;;;;0.00;0.00;;;;;;;;;;5057674;28;20435;-95
2022/12/31 02:32:51;;;;;;;0.00;0.00;;;;;;;;;;5062022;28;20049;-94
2022/12/31 02:35:23;;;;;;;0.00;0.00;;;;;;;;;;5055659;28;20072;-94
2022/12/31 02:37:53;;;;;;;0.13;0.00;;;;;;;;;;5049236;28;20053;-95
2022/12/31 02:40:23;;;;;;;0.00;0.00;;;;;;;;;;5038534;28;20052;-93
2022/12/31 02:42:51;;;;;;;0.00;0.00;;;;;;;;;;5057137;28;20044;-95
2022/12/31 02:45:27;;;;;;;0.00;0.00;;;;;;;;;;5060424;28;20040;-92
2022/12/31 02:48:02;;;;;;;0.00;0.00;;;;;;;;;;5055252;28;20101;-90
2022/12/31 02:50:37;;;;;;;0.05;0.05;;;;;;;;;;5056963;28;20048;-95
2022/12/31 02:53:15;;;;;;;0.00;0.00;;;;;;;;;;5054485;28;20115;-94
2022/12/31 02:55:50;;;;;;;0.00;0.00;;;;;;;;;;5057562;28;20057;-96
2022/12/31 03:02:12;;;;;;;0.10;0.10;;;;;;;;;;5051455;28;20033;-95
2022/12/31 03:04:30;;;;;;;0.00;0.00;;;;;;;;;;5055655;28;20045;-92
2022/12/31 03:06:54;;;;;;;0.00;0.00;;;;;;;;;;5051919;28;20053;-96
2022/12/31 03:09:23;;;;;;;0.03;0.03;;;;;;;;;;5051411;28;20056;-92
2022/12/31 03:14:38;;;;;;;0.00;0.00;;;;;;;;;;5052302;28;20048;-94
2022/12/31 03:17:09;;;;;;;0.00;0.00;;;;;;;;;;5051458;28;20048;-96
2022/12/31 03:22:28;;;;;;;0.30;0.20;;;;;;;;;;5055490;28;20052;-95
2022/12/31 03:27:46;;;;;;;0.10;0.10;;;;;;;;;;5049297;28;20802;-91
2022/12/31 03:30:15;;;;;;;0.00;0.00;;;;;;;;;;5053813;28;20061;-94
2022/12/31 03:32:47;;;;;;;0.47;0.00;;;;;;;;;;5053469;28;20041;-94
2022/12/31 03:35:18;;;;;;;0.10;0.10;;;;;;;;;;5053013;28;20110;-95
2022/12/31 03:37:47;;;;;;;0.00;0.00;;;;;;;;;;5060978;28;20060;-92
2022/12/31 03:40:16;;;;;;;0.08;0.08;;;;;;;;;;5056800;28;20115;-94
2022/12/31 03:42:45;;;;;;;0.00;0.00;;;;;;;;;;5054049;28;20041;-94
2022/12/31 03:45:14;;;;;;;0.00;0.00;;;;;;;;;;5055445;28;20052;-90
2022/12/31 03:47:43;;;;;;;0.00;0.00;;;;;;;;;;5055453;28;20460;-96
2022/12/31 03:50:14;;;;;;;0.00;0.00;;;;;;;;;;5057255;28;20116;-95
2022/12/31 03:52:43;;;;;;;0.00;0.00;;;;;;;;;;5057758;28;20190;-95
2022/12/31 03:55:13;;;;;;;0.00;0.00;;;;;;;;;;5050567;28;20044;-93
2022/12/31 03:57:43;;;;;;;0.00;0.00;;;;;;;;;;5054197;28;20515;-92
2022/12/31 04:00:14;;;;;;;0.00;0.00;;;;;;;;;;5052754;28;20501;-93
2022/12/31 04:02:42;;;;;;;0.52;0.10;;;;;;;;;;5057148;28;20068;-95
2022/12/31 04:05:12;;;;;;;0.03;0.03;;;;;;;;;;5053854;28;20057;-93
2022/12/31 04:07:41;;;;;;;0.00;0.00;;;;;;;;;;5050507;28;20463;-94
2022/12/31 04:10:11;;;;;;;0.00;0.00;;;;;;;;;;5055094;28;20049;-92
2022/12/31 04:12:40;;;;;;;0.00;0.00;;;;;;;;;;5056507;28;20049;-96
2022/12/31 04:15:10;;;;;;;0.00;0.00;;;;;;;;;;5054142;28;20110;-95
2022/12/31 04:17:39;;;;;;;0.00;0.00;;;;;;;;;;5055989;28;20152;-96
2022/12/31 04:20:08;;;;;;;0.00;0.00;;;;;;;;;;5055427;28;20067;-96
2022/12/31 04:22:39;;;;;;;0.10;0.10;;;;;;;;;;5051462;28;20045;-95
2022/12/31 04:25:10;;;;;;;0.00;0.00;;;;;;;;;;5055794;28;20059;-95
2022/12/31 04:27:40;;;;;;;0.00;0.00;;;;;;;;;;5054568;28;20053;-94
2022/12/31 04:30:10;;;;;;;0.00;0.00;;;;;;;;;;5056147;28;20510;-95
2022/12/31 04:32:39;;;;;;;1.75;0.10;;;;;;;;;;5061797;28;20052;-95
2022/12/31 04:35:09;;;;;;;0.00;0.00;;;;;;;;;;5052740;28;20053;-93
2022/12/31 04:37:39;;;;;;;0.00;0.00;;;;;;;;;;5053498;28;20075;-93
2022/12/31 04:40:08;;;;;;;0.00;0.00;;;;;;;;;;5057783;28;20090;-91
2022/12/31 04:42:37;;;;;;;0.03;0.03;;;;;;;;;;5051701;28;20045;-92
2022/12/31 04:45:06;;;;;;;0.00;0.00;;;;;;;;;;5051392;28;20068;-93
2022/12/31 04:47:35;;;;;;;0.08;0.08;;;;;;;;;;5056098;28;20053;-93
2022/12/31 04:50:03;;;;;;;0.00;0.00;;;;;;;;;;5050342;28;20045;-91
2022/12/31 04:52:31;;;;;;;0.00;0.00;;;;;;;;;;5055108;28;20052;-95
2022/12/31 04:55:11;;;;;;;0.00;0.00;;;;;;;;;;5051738;28;20498;-96
2022/12/31 04:57:41;;;;;;;0.00;0.00;;;;;;;;;;5056399;28;20096;-92
2022/12/31 05:00:10;;;;;;;0.20;0.20;;;;;;;;;;5056256;28;20120;-96
2022/12/31 05:02:39;;;;;;;0.00;0.00;;;;;;;;;;5051424;28;20125;-93
2022/12/31 05:05:08;;;;;;;0.00;0.00;;;;;;;;;;5056971;28;20084;-96
2022/12/31 05:07:37;;;;;;;0.10;0.10;;;;;;;;;;5056984;28;20342;-93
2022/12/31 05:10:06;;;;;;;0.00;0.00;;;;;;;;;;5052617;28;20468;-93
2022/12/31 05:12:36;;;;;;;0.08;0.08;;;;;;;;;;5053621;28;20051;-94
2022/12/31 05:15:04;;;;;;;0.00;0.00;;;;;;;;;;5054774;28;20399;-94
2022/12/31 05:17:33;;;;;;;0.00;0.00;;;;;;;;;;5054873;28;20050;-92
2022/12/31 05:20:01;;;;;;;0.10;0.10;;;;;;;;;;5050659;28;20051;-94
2022/12/31 05:22:30;;;;;;;0.20;0.10;;;;;;;;;;5046655;28;20045;-93
2022/12/31 05:24:59;;;;;;;0.10;0.10;;;;;;;;;;5050449;28;20505;-93
2022/12/31 05:27:29;;;;;;;0.00;0.00;;;;;;;;;;5046666;28;20053;-94
2022/12/31 05:30:00;;;;;;;0.00;0.00;;;;;;;;;;5050740;28;20049;-90
2022/12/31 05:32:28;;;;;;;0.00;0.00;;;;;;;;;;5054134;28;20162;-90
2022/12/31 05:34:58;;;;;;;0.10;0.10;;;;;;;;;;5059627;28;20095;-91
2022/12/31 05:37:28;;;;;;;0.03;0.03;;;;;;;;;;5049658;28;20065;-96
2022/12/31 05:39:59;;;;;;;0.10;0.10;;;;;;;;;;5074355;23;20136;-90
2022/12/31 05:48:24;;;;;;;0.00;0.00;;;;;;;;;;5049232;28;20140;-90
2022/12/31 05:50:56;;;;;;;0.10;0.10;;;;;;;;;;5039717;28;20073;-88
2022/12/31 05:53:27;;;;;;;0.00;0.00;;;;;;;;;;5044689;28;20056;-90
2022/12/31 05:56:47;;;;;;;0.00;0.00;;;;;;;;;;5042718;28;20473;-95
2022/12/31 05:59:16;;;;;;;0.10;0.10;;;;;;;;;;5048283;28;20075;-87
2022/12/31 06:01:48;;;;;;;0.15;0.10;;;;;;;;;;5048903;28;20501;-88
2022/12/31 06:04:17;;;;;;;0.00;0.00;;;;;;;;;;5040194;28;20056;-88
2022/12/31 06:06:46;;;;;;;0.10;0.10;;;;;;;;;;5050330;28;20128;-87
2022/12/31 06:09:15;;;;;;;0.20;0.10;;;;;;;;;;5053621;28;20102;-88
2022/12/31 06:11:44;;;;;;;0.20;0.20;;;;;;;;;;5043478;28;20489;-87
2022/12/31 06:14:13;;;;;;;0.00;0.00;;;;;;;;;;5046209;28;20072;-88
2022/12/31 06:16:41;;;;;;;0.00;0.00;;;;;;;;;;5047504;28;20580;-87
2022/12/31 06:19:11;;;;;;;0.05;0.05;;;;;;;;;;5054914;28;20063;-87
2022/12/31 06:21:42;;;;;;;0.10;0.10;;;;;;;;;;5054614;28;20053;-87
2022/12/31 06:24:11;;;;;;;0.00;0.00;;;;;;;;;;5049633;28;20063;-87
2022/12/31 06:26:39;;;;;;;0.20;0.20;;;;;;;;;;5040052;28;20049;-87
2022/12/31 06:29:09;;;;;;;0.00;0.00;;;;;;;;;;5049887;28;20071;-88
2022/12/31 06:31:37;;;;;;;0.10;0.08;;;;;;;;;;5049353;28;20114;-87
2022/12/31 06:34:06;;;;;;;0.00;0.00;;;;;;;;;;5051484;28;20060;-88
2022/12/31 06:36:36;;;;;;;0.03;0.03;;;;;;;;;;5052915;28;20041;-87
2022/12/31 06:39:06;;;;;;;0.00;0.00;;;;;;;;;;5050480;28;20083;-88
2022/12/31 06:41:37;;;;;;;0.43;0.10;;;;;;;;;;5057039;28;20123;-88
2022/12/31 06:44:06;;;;;;;0.70;0.05;;;;;;;;;;5053094;28;20048;-87
2022/12/31 06:46:37;;;;;;;0.00;0.00;;;;;;;;;;5055959;28;20143;-87
2022/12/31 06:49:06;;;;;;;0.10;0.10;;;;;;;;;;5052380;28;20044;-87
2022/12/31 06:51:36;;;;;;;0.20;0.15;;;;;;;;;;5045869;28;20130;-87
2022/12/31 06:54:05;;;;;;;0.13;0.10;;;;;;;;;;5057027;28;20072;-87
2022/12/31 06:56:34;;;;;;;0.52;0.10;;;;;;;;;;5053168;28;20048;-85
2022/12/31 06:59:02;;;;;;;0.00;0.00;;;;;;;;;;5037158;28;20049;-86
2022/12/31 07:01:37;;;;;;;0.00;0.00;;;;;;;;;;5041531;28;20056;-85
2022/12/31 07:04:17;;;;;;;1.08;0.20;;;;;;;;;;5057303;28;20061;-86
2022/12/31 07:06:49;;;;;;;0.50;0.30;;;;;;;;;;5045620;28;20056;-86
2022/12/31 07:09:22;;;;;;;0.00;0.00;;;;;;;;;;5069655;28;20148;-86
2022/12/31 07:11:55;;;;;;;0.15;0.10;;;;;;;;;;5054380;28;20045;-86
2022/12/31 07:14:27;;;;;;;1.35;0.10;;;;;;;;;;5053054;28;20427;-87
2022/12/31 07:17:04;;;;;;;0.00;0.00;;;;;;;;;;5060912;28;20168;-87
2022/12/31 07:19:40;;;;;;;0.00;0.00;;;;;;;;;;5056964;28;20092;-86
2022/12/31 07:22:14;;;;;;;0.28;0.10;;;;;;;;;;5037746;28;20498;-86
2022/12/31 07:24:43;;;;;;;0.00;0.00;;;;;;;;;;5051691;28;20055;-86
2022/12/31 07:27:25;;;;;;;0.10;0.10;;;;;;;;;;5044770;28;20045;-86
2022/12/31 07:30:01;;;;;;;0.08;0.08;;;;;;;;;;5050604;28;20584;-86
2022/12/31 07:32:36;;;;;;;0.05;0.05;;;;;;;;;;5054015;28;20152;-87
2022/12/31 07:35:09;;;;;;;0.10;0.10;;;;;;;;;;5047514;28;20144;-87
2022/12/31 07:37:46;;;;;;;0.38;0.10;;;;;;;;;;5056181;28;20045;-90
2022/12/31 07:40:20;;;;;;;0.03;0.00;;;;;;;;;;5051399;28;20156;-88
2022/12/31 07:42:58;;;;;;;0.52;0.10;;;;;;;;;;5056892;28;20104;-88
2022/12/31 07:45:33;;;;;;;0.00;0.00;;;;;;;;;;5052183;28;20065;-89
2022/12/31 07:48:05;;;;;;;0.10;0.10;;;;;;;;;;5053373;28;20135;-89
2022/12/31 07:50:34;;;;;;;0.00;0.00;;;;;;;;;;5052368;28;20138;-89
2022/12/31 07:53:04;;;;;;;0.10;0.10;;;;;;;;;;5051621;28;20456;-89
2022/12/31 07:55:35;;;;;;;5.07;0.30;;;;;;;;;;5044133;28;20053;-88
2022/12/31 07:58:06;;;;;;;0.30;0.30;;;;;;;;;;5050109;28;20045;-89
2022/12/31 08:00:35;;;;;;;0.05;0.03;;;;;;;;;;5051850;28;20052;-88
2022/12/31 08:03:17;;;;;;;0.10;0.10;;;;;;;;;;5055033;28;20041;-88
2022/12/31 08:05:51;;;;;;;0.10;0.10;;;;;;;;;;5049634;28;20053;-88
2022/12/31 08:08:32;;;;;;;1.35;0.10;;;;;;;;;;5058613;28;20737;-89
2022/12/31 08:11:08;;;;;;;0.10;0.10;;;;;;;;;;5035696;28;20076;-89
2022/12/31 08:13:39;;;;;;;0.05;0.05;;;;;;;;;;5055742;28;20120;-89
2022/12/31 08:16:24;;;;;;;0.00;0.00;;;;;;;;;;5051597;28;20052;-90
2022/12/31 08:18:56;;;;;;;0.10;0.10;;;;;;;;;;5041426;28;20104;-89
2022/12/31 08:21:49;;;;;;;0.28;0.20;;;;;;;;;;5052278;28;20053;-89
2022/12/31 08:24:38;;;;;;;0.03;0.00;;;;;;;;;;5056899;28;20049;-91
2022/12/31 08:27:10;;;;;;;0.00;0.00;;;;;;;;;;5055909;28;20041;-91
2022/12/31 08:29:52;;;;;;;0.10;0.10;;;;;;;;;;5046557;28;20069;-91
2022/12/31 08:32:32;;;;;;;0.00;0.00;;;;;;;;;;5064744;28;20076;-90
2022/12/31 08:35:06;;;;;;;0.45;0.43;;;;;;;;;;5056420;28;20049;-90
2022/12/31 08:37:38;;;;;;;0.03;0.03;;;;;;;;;;5050275;28;20110;-92
2022/12/31 08:40:17;;;;;;;0.35;0.32;;;;;;;;;;5056769;28;20095;-93
2022/12/31 08:43:03;;;;;;;0.03;0.03;;;;;;;;;;5065815;28;20063;-91
2022/12/31 08:45:36;;;;;;;1.45;0.22;;;;;;;;;;5052772;28;20053;-92
2022/12/31 08:48:16;;;;;;;0.10;0.00;;;;;;;;;;5057835;28;20419;-91
2022/12/31 08:50:45;;;;;;;0.00;0.00;;;;;;;;;;5052272;28;20045;-91
2022/12/31 08:53:23;;;;;;;0.00;0.00;;;;;;;;;;5059064;28;20380;-90
2022/12/31 08:55:57;;;;;;;0.00;0.00;;;;;;;;;;5060951;28;20052;-91
2022/12/31 08:58:41;;;;;;;3.10;0.25;;;;;;;;;;5060221;28;20077;-91
2022/12/31 09:01:11;;;;;;;0.40;0.22;;;;;;;;;;5050199;28;20140;-91
2022/12/31 09:03:55;;;;;;;2.30;0.10;;;;;;;;;;5056518;28;20057;-91
2022/12/31 09:06:27;;;;;;;2.50;0.10;;;;;;;;;;5056598;28;20063;-91
2022/12/31 09:09:00;;;;;;;0.10;0.10;;;;;;;;;;5050517;28;20119;-91
2022/12/31 09:11:34;;;;;;;0.60;0.17;;;;;;;;;;5053307;28;20672;-92
2022/12/31 09:14:23;;;;;;;0.90;0.00;;;;;;;;;;5050639;28;20076;-91
2022/12/31 09:16:58;;;;;;;0.43;0.20;;;;;;;;;;5049266;28;20045;-91
2022/12/31 09:19:27;;;;;;;0.28;0.10;;;;;;;;;;5057340;28;20057;-91
2022/12/31 09:22:10;;;;;;;0.30;0.20;;;;;;;;;;5062245;28;20372;-90
2022/12/31 09:24:48;;;;;;;1.67;0.30;;;;;;;;;;5057732;28;20494;-91
2022/12/31 09:27:26;;;;;;;0.20;0.20;;;;;;;;;;5051517;28;20148;-92
2022/12/31 09:30:02;;;;;;;0.05;0.05;;;;;;;;;;5061416;28;20500;-90
2022/12/31 09:32:37;;;;;;;0.13;0.13;;;;;;;;;;5056032;28;20099;-92
2022/12/31 09:35:12;;;;;;;0.08;0.08;;;;;;;;;;5054129;28;20060;-92
2022/12/31 09:37:44;;;;;;;0.10;0.10;;;;;;;;;;5054344;28;20045;-91
2022/12/31 09:40:46;;;;;;;0.00;0.00;;;;;;;;;;5056931;28;20429;-92
2022/12/31 09:43:48;;;;;;;0.10;0.10;;;;;;;;;;5057638;28;20045;-91
2022/12/31 09:46:59;;;;;;;0.82;0.20;;;;;;;;;;5051774;28;20485;-90
2022/12/31 09:49:50;;;;;;;0.00;0.00;;;;;;;;;;5045291;28;20135;-90
2022/12/31 09:52:23;;;;;;;0.00;0.00;;;;;;;;;;5057745;28;20045;-89
2022/12/31 09:55:41;;;;;;;0.10;0.10;;;;;;;;;;5045315;28;20068;-90
2022/12/31 09:58:25;;;;;;;0.00;0.00;;;;;;;;;;5049134;28;20438;-92
2022/12/31 10:01:08;;;;;;;1.00;0.38;;;;;;;;;;5054466;28;20372;-91
2022/12/31 10:19:44;;;;;;;0.00;0.00;;;;;;;;;;5047999;28;20444;-89
2022/12/31 10:32:39;;;;;;;0.47;0.10;;;;;;;;;;5047548;28;20365;-88
2022/12/31 10:38:34;;;;;;;0.15;0.10;;;;;;;;;;5049412;28;20049;-89
2022/12/31 10:41:33;;;;;;;0.15;0.05;;;;;;;;;;5020439;28;20071;-91
2022/12/31 10:44:37;;;;;;;0.00;0.00;;;;;;;;;;5040790;28;20061;-90
2022/12/31 10:50:58;;;;;;;0.00;0.00;;;;;;;;;;5002634;28;20046;-91
2022/12/31 10:53:45;;;;;;;0.00;0.00;;;;;;;;;;5030322;28;20053;-90
2022/12/31 10:56:31;;;;;;;0.30;0.17;;;;;;;;;;5023419;28;20180;-95
2022/12/31 10:59:18;;;;;;;0.03;0.03;;;;;;;;;;5033988;28;20411;-92
2022/12/31 11:01:59;;;;;;;0.85;0.20;;;;;;;;;;5028663;28;20058;-92
2022/12/31 11:04:47;;;;;;;1.55;0.47;;;;;;;;;;5025645;28;20053;-89
2022/12/31 11:07:48;;;;;;;0.45;0.45;;;;;;;;;;5026136;28;20045;-90
2022/12/31 11:10:44;;;;;;;0.73;0.43;;;;;;;;;;4924562;28;20043;-91
2022/12/31 11:13:28;;;;;;;0.00;0.00;;;;;;;;;;4951450;28;20050;-90
2022/12/31 11:16:21;;;;;;;0.45;0.13;;;;;;;;;;4995228;28;20076;-90
2022/12/31 11:18:53;;;;;;;0.40;0.20;;;;;;;;;;5032252;28;20045;-90
2022/12/31 11:21:31;;;;;;;0.63;0.10;;;;;;;;;;5038105;28;20128;-90
2022/12/31 11:24:21;;;;;;;0.80;0.30;;;;;;;;;;5052277;28;20474;-90
2022/12/31 11:27:07;;;;;;;3.42;0.25;;;;;;;;;;5051923;28;20150;-90
2022/12/31 11:29:51;;;;;;;1.98;0.17;;;;;;;;;;5053232;28;20041;-90
2022/12/31 11:32:28;;;;;;;0.40;0.30;;;;;;;;;;5056170;28;20049;-91
2022/12/31 11:35:24;;;;;;;0.43;0.10;;;;;;;;;;5057828;28;20525;-89
2022/12/31 11:38:40;;;;;;;0.10;0.10;;;;;;;;;;5026637;28;20068;-89
2022/12/31 11:41:49;;;;;;;0.75;0.10;;;;;;;;;;5028792;28;20038;-90
2022/12/31 11:44:27;;;;;;;2.30;0.28;;;;;;;;;;5030495;28;20080;-91
2022/12/31 11:50:24;;;;;;;2.80;0.45;;;;;;;;;;5033468;28;20149;-92
2022/12/31 11:53:07;;;;;;;0.15;0.15;;;;;;;;;;5032877;28;20113;-92
2022/12/31 11:55:45;;;;;;;0.30;0.20;;;;;;;;;;5036577;28;20057;-92
2022/12/31 11:58:27;;;;;;;0.57;0.38;;;;;;;;;;5027567;28;20061;-90
2022/12/31 12:01:12;;;;;;;2.08;1.02;;;;;;;;;;5027420;28;20057;-91
2022/12/31 12:04:31;;;;;;;0.20;0.20;;;;;;;;;;5030591;28;20631;-89
2022/12/31 12:07:17;;;;;;;0.30;0.10;;;;;;;;;;5028448;28;20066;-90
2022/12/31 12:10:04;;;;;;;1.20;0.75;;;;;;;;;;5031369;28;20064;-91
2022/12/31 12:12:45;;;;;;;0.08;0.08;;;;;;;;;;5031824;28;20160;-89
2022/12/31 12:21:51;;;;;;;0.55;0.20;;;;;;;;;;5029067;28;20405;-90
2022/12/31 12:24:52;;;;;;;0.50;0.20;;;;;;;;;;5032236;28;20076;-90
2022/12/31 12:33:23;;;;;;;0.40;0.30;;;;;;;;;;5030485;28;20061;-92
2022/12/31 12:35:53;;;;;;;1.58;0.38;;;;;;;;;;5037028;28;20051;-92
2022/12/31 12:38:23;;;;;;;0.20;0.20;;;;;;;;;;5030469;28;20069;-92
2022/12/31 12:41:02;;;;;;;1.88;0.30;;;;;;;;;;5032018;28;20069;-91
2022/12/31 12:43:32;;;;;;;0.38;0.32;;;;;;;;;;5030683;28;20053;-90
2022/12/31 12:46:12;;;;;;;0.20;0.20;;;;;;;;;;5034555;28;20049;-92
2022/12/31 12:48:42;;;;;;;0.10;0.10;;;;;;;;;;5028412;28;20053;-90
2022/12/31 12:51:54;;;;;;;0.47;0.30;;;;;;;;;;5033897;28;20046;-93
2022/12/31 12:54:36;;;;;;;1.65;0.22;;;;;;;;;;5028986;28;20057;-94
2022/12/31 12:57:11;;;;;;;1.02;0.20;;;;;;;;;;5033885;28;20053;-96
2022/12/31 13:00:10;;;;;;;0.20;0.20;;;;;;;;;;5038032;28;20045;-92
2022/12/31 13:02:54;;;;;;;0.30;0.20;;;;;;;;;;5040063;28;20053;-91
2022/12/31 13:05:30;;;;;;;0.22;0.03;;;;;;;;;;5030526;28;20049;-92
2022/12/31 13:08:04;;;;;;;0.45;0.15;;;;;;;;;;5013860;28;20482;-92
2022/12/31 13:10:56;;;;;;;0.20;0.10;;;;;;;;;;5032825;28;20387;-92
2022/12/31 13:13:33;;;;;;;0.20;0.20;;;;;;;;;;5033110;28;20592;-92
2022/12/31 13:16:26;;;;;;;0.60;0.30;;;;;;;;;;5033617;28;20045;-92
2022/12/31 13:19:03;;;;;;;0.13;0.10;;;;;;;;;;5033539;28;20067;-91
2022/12/31 13:21:51;;;;;;;0.88;0.22;;;;;;;;;;5031852;28;20056;-92
2022/12/31 13:24:31;;;;;;;2.30;0.60;;;;;;;;;;5011464;28;20064;-93
2022/12/31 13:27:15;;;;;;;0.55;0.28;;;;;;;;;;5031531;28;20047;-91
2022/12/31 13:29:50;;;;;;;1.35;0.20;;;;;;;;;;5033333;28;20067;-90
2022/12/31 13:35:21;;;;;;;0.30;0.20;;;;;;;;;;5027977;28;20045;-94
2022/12/31 13:38:07;;;;;;;2.38;0.05;;;;;;;;;;5033727;28;20112;-91
2022/12/31 13:41:07;;;;;;;0.28;0.13;;;;;;;;;;5053837;28;20325;-91
2022/12/31 13:43:40;;;;;;;1.20;0.95;;;;;;;;;;5052767;28;20137;-90
2022/12/31 13:46:20;;;;;;;0.38;0.20;;;;;;;;;;5053208;28;20113;-91
2022/12/31 13:48:50;;;;;;;1.30;0.15;;;;;;;;;;5048386;28;20064;-92
2022/12/31 13:54:08;;;;;;;0.38;0.22;;;;;;;;;;5051809;28;20051;-90
2022/12/31 13:56:50;;;;;;;0.68;0.43;;;;;;;;;;5052979;28;20057;-93
2022/12/31 13:59:22;;;;;;;0.17;0.10;;;;;;;;;;5052008;28;20053;-94
2022/12/31 14:01:55;;;;;;;0.17;0.17;;;;;;;;;;5053456;28;20064;-94
2022/12/31 14:04:29;;;;;;;0.20;0.20;;;;;;;;;;5055529;28;20045;-92
2022/12/31 14:07:02;;;;;;;0.70;0.20;;;;;;;;;;5053388;28;20065;-92
2022/12/31 14:09:36;;;;;;;0.50;0.30;;;;;;;;;;5054249;28;20105;-93
2022/12/31 14:12:31;;;;;;;0.32;0.22;;;;;;;;;;5041659;28;20476;-93
2022/12/31 14:15:24;;;;;;;0.43;0.32;;;;;;;;;;5040529;28;20570;-92
2022/12/31 14:18:02;;;;;;;0.68;0.30;;;;;;;;;;5057075;28;20124;-92
2022/12/31 14:20:37;;;;;;;4.18;0.28;;;;;;;;;;5053395;28;20110;-91
2022/12/31 14:23:10;;;;;;;0.15;0.15;;;;;;;;;;5053037;28;20057;-92
2022/12/31 14:25:46;;;;;;;0.28;0.28;;;;;;;;;;5054666;28;20053;-91
2022/12/31 14:28:20;;;;;;;2.58;1.08;;;;;;;;;;5053182;28;20049;-91
2022/12/31 14:33:52;;;;;;;8.13;0.40;;;;;;;;;;5054700;28;20040;-94
2022/12/31 14:36:30;;;;;;;0.55;0.13;;;;;;;;;;5059887;28;20048;-93
2022/12/31 14:39:06;;;;;;;0.25;0.22;;;;;;;;;;5051751;28;20049;-93
2022/12/31 14:41:42;;;;;;;0.73;0.25;;;;;;;;;;5055718;28;20067;-92
2022/12/31 14:44:23;;;;;;;0.03;0.00;;;;;;;;;;5056044;28;20124;-93
2022/12/31 14:47:05;;;;;;;4.80;0.57;;;;;;;;;;5040382;28;20045;-92
2022/12/31 14:49:39;;;;;;;1.33;1.20;;;;;;;;;;5052846;28;20049;-92
2022/12/31 14:52:23;;;;;;;0.93;0.52;;;;;;;;;;5056407;28;20056;-94
2022/12/31 14:55:02;;;;;;;3.95;0.55;;;;;;;;;;5054715;28;20048;-94
2022/12/31 14:57:39;;;;;;;1.63;0.50;;;;;;;;;;5061076;28;20060;-93
2022/12/31 15:00:38;;;;;;;0.40;0.30;;;;;;;;;;5042203;28;20748;-93
2022/12/31 15:03:12;;;;;;;0.75;0.47;;;;;;;;;;5053874;28;20112;-93
2022/12/31 15:05:51;;;;;;;0.60;0.30;;;;;;;;;;5056160;28;20041;-93
2022/12/31 15:08:41;;;;;;;0.63;0.40;;;;;;;;;;5056770;28;20079;-91
2022/12/31 15:11:28;;;;;;;0.35;0.35;;;;;;;;;;5050006;28;20048;-92
2022/12/31 15:14:23;;;;;;;0.32;0.20;;;;;;;;;;5034610;28;20053;-92
2022/12/31 15:17:00;;;;;;;1.17;0.52;;;;;;;;;;5054289;28;20060;-92
2022/12/31 15:19:55;;;;;;;0.88;0.35;;;;;;;;;;5058168;28;20080;-94
2022/12/31 15:22:36;;;;;;;2.47;0.30;;;;;;;;;;5052507;28;20061;-93
2022/12/31 15:25:22;;;;;;;0.40;0.30;;;;;;;;;;5050624;28;20468;-92
2022/12/31 15:27:54;;;;;;;1.27;0.70;;;;;;;;;;5051340;28;20132;-93
2022/12/31 15:30:37;;;;;;;0.57;0.57;;;;;;;;;;5051647;28;20160;-92
2022/12/31 15:33:09;;;;;;;0.28;0.22;;;;;;;;;;5054310;28;20045;-92
2022/12/31 15:35:46;;;;;;;0.20;0.20;;;;;;;;;;5057870;28;20705;-91
2022/12/31 15:38:30;;;;;;;1.33;0.60;;;;;;;;;;5055228;28;20245;-92
2022/12/31 15:41:00;;;;;;;1.65;0.80;;;;;;;;;;5055933;28;20481;-93
2022/12/31 15:43:33;;;;;;;0.88;0.40;;;;;;;;;;5053455;28;20048;-91
2022/12/31 15:46:10;;;;;;;1.42;0.55;;;;;;;;;;5053619;28;20094;-91
2022/12/31 15:51:47;;;;;;;1.17;0.28;;;;;;;;;;5055610;28;20114;-90
2022/12/31 15:54:23;;;;;;;0.68;0.30;;;;;;;;;;5053925;28;20563;-89
2022/12/31 15:56:55;;;;;;;0.45;0.20;;;;;;;;;;5054256;28;20044;-91
2022/12/31 15:59:55;;;;;;;0.55;0.17;;;;;;;;;;5022031;28;20071;-90
2022/12/31 16:02:48;;;;;;;0.65;0.30;;;;;;;;;;5038386;28;20091;-93
2022/12/31 16:05:23;;;;;;;1.83;0.40;;;;;;;;;;5048741;28;20049;-93
2022/12/31 16:07:52;;;;;;;;;;;;;;;;;;5049931;28;20179;-92
2022/12/31 16:10:24;;;;;;;1.42;0.43;;;;;;;;;;5048160;28;20056;-91
2022/12/31 16:12:55;;;;;;;4.85;0.45;;;;;;;;;;5047764;28;20045;-92
2022/12/31 16:18:12;;;;;;;4.68;0.20;;;;;;;;;;5049829;28;20056;-90
2022/12/31 16:21:06;;;;;;;0.47;0.30;;;;;;;;;;5054048;28;20695;-94
2022/12/31 16:23:37;;;;;;;0.95;0.30;;;;;;;;;;5056069;28;20045;-92
2022/12/31 16:26:10;;;;;;;0.88;0.45;;;;;;;;;;5057348;28;20045;-93
2022/12/31 16:28:50;;;;;;;2.03;0.30;;;;;;;;;;5048672;28;20041;-93
2022/12/31 16:31:25;;;;;;;1.45;0.20;;;;;;;;;;5059994;28;20045;-93
2022/12/31 16:34:06;;;;;;;0.45;0.20;;;;;;;;;;5059456;28;20046;-93
2022/12/31 16:36:37;;;;;;;0.43;0.15;;;;;;;;;;5058094;28;20473;-93
2022/12/31 16:39:23;;;;;;;0.57;0.32;;;;;;;;;;5060544;28;20118;-92
2022/12/31 16:42:16;;;;;;;0.32;0.17;;;;;;;;;;5063833;28;20078;-90
2022/12/31 16:45:22;;;;;;;0.43;0.43;;;;;;;;;;5057266;28;20152;-93
2022/12/31 16:47:53;;;;;;;0.80;0.80;;;;;;;;;;5036631;28;20129;-91
2022/12/31 17:03:42;;;;;;;0.57;0.35;;;;;;;;;;5012210;28;20050;-90
2022/12/31 17:06:38;;;;;;;0.43;0.40;;;;;;;;;;5018986;28;20053;-89
2022/12/31 17:09:25;;;;;;;0.98;0.47;;;;;;;;;;5017368;28;20046;-92
2022/12/31 17:15:35;;;;;;;0.30;0.30;;;;;;;;;;5012519;28;20053;-92